Queen Isabella — A8IE2 — position and weather

sailwx.info

Track history (hours):
 
Tides and Currents Weather Stations Pressure Air Temp Water Temp Dewpoint Dewpoint Depression Visibility Wind Speed Wind Dir Waves Ship Positions

Queen Isabella

Last reported at 2016-Sep-26 13:27 UTC. Time now 2016-Sep-27 00:18 UTC.
Position N 36°44' W 007°45'.

Length 131 m; draft 6 m.

Type: Ship. MMSI: 636090959.

Date/timePositionNaut miles runAvg speedWind from/ knotsBaromVisibWave heightAir tempDewpointWater temp
2016-Sep-26 13:27N 36°44' W 007°45'3013.3
2016-Sep-26 11:11N 36°36' W 008°21'9310.8
2016-Sep-26 02:33N 37°34' W 009°52'2114.3
2016-Sep-26 01:06N 37°54' W 009°58'814.6
2016-Sep-26 00:33N 38°02' W 009°60'4714.8
2016-Sep-25 21:22N 38°48' W 010°11'64612.9
2016-Sep-23 19:16N 49°02' W 005°31'21613.6
2016-Sep-23 03:22N 50°27' W 000°23'1012.8
2016-Sep-23 02:33N 50°30' W 000°07'1211.9
2016-Sep-23 01:33N 50°33' E 000°11'1111.4
2016-Sep-23 00:33N 50°37' E 000°28'5413.6
2016-Sep-22 20:34N 51°09' E 001°37'18810.9
2016-Sep-22 03:18N 54°12' E 000°27'3312.1
2016-Sep-22 00:33N 54°32' W 000°18'2522.8
2016-Sep-21 23:29N 54°40' W 000°59'2 2.5
2016-Sep-21 22:34N 54°40' W 001°02'20 0.7
2016-Sep-20 17:25N 54°35' W 000°28'4013.8
2016-Sep-20 14:33N 54°12' E 000°27'16313.6
2016-Sep-20 02:34N 51°48' E 002°35'4314.5
2016-Sep-19 23:33N 51°12' E 001°57'8111.6
2016-Sep-19 16:33N 50°22' E 000°15'2512.5
2016-Sep-19 14:33N 50°15' W 000°23'11216.1
2016-Sep-19 07:33N 49°44' W 003°11'66 5.5
2016-Sep-18 19:33N 49°30' W 004°51'9 2.1
2016-Sep-18 15:32N 49°26' W 005°03'1 1.0
2016-Sep-18 14:33N 49°26' W 005°04'5 1.2
2016-Sep-18 10:33N 49°27' W 004°57'1 1.4
2016-Sep-18 09:31N 49°28' W 004°55'  
Track history (hours):
 
Tides and Currents Weather Stations Pressure Air Temp Water Temp Dewpoint Dewpoint Depression Visibility Wind Speed Wind Dir Waves Ship Positions

Queen Isabella

Last reported at 2016-Sep-26 13:27 UTC. Time now 2016-Sep-27 00:18 UTC.
Position N 36°44' W 007°45'.

Length 131 m; draft 6 m.

Type: Ship. MMSI: 636090959.

Date/timePositionNaut miles runAvg speedWind from/ knotsBaromVisibWave heightAir tempDewpointWater temp
2016-Sep-26 13:27N 36°44' W 007°45'3013.3
2016-Sep-26 11:11N 36°36' W 008°21'9310.8
2016-Sep-26 02:33N 37°34' W 009°52'2114.3
2016-Sep-26 01:06N 37°54' W 009°58'814.6
2016-Sep-26 00:33N 38°02' W 009°60'4714.8
2016-Sep-25 21:22N 38°48' W 010°11'64612.9
2016-Sep-23 19:16N 49°02' W 005°31'21613.6
2016-Sep-23 03:22N 50°27' W 000°23'1012.8
2016-Sep-23 02:33N 50°30' W 000°07'1211.9
2016-Sep-23 01:33N 50°33' E 000°11'1111.4
2016-Sep-23 00:33N 50°37' E 000°28'5413.6
2016-Sep-22 20:34N 51°09' E 001°37'18810.9
2016-Sep-22 03:18N 54°12' E 000°27'3312.1
2016-Sep-22 00:33N 54°32' W 000°18'2522.8
2016-Sep-21 23:29N 54°40' W 000°59'2 2.5
2016-Sep-21 22:34N 54°40' W 001°02'20 0.7
2016-Sep-20 17:25N 54°35' W 000°28'4013.8
2016-Sep-20 14:33N 54°12' E 000°27'16313.6
2016-Sep-20 02:34N 51°48' E 002°35'4314.5
2016-Sep-19 23:33N 51°12' E 001°57'8111.6
2016-Sep-19 16:33N 50°22' E 000°15'2512.5
2016-Sep-19 14:33N 50°15' W 000°23'11216.1
2016-Sep-19 07:33N 49°44' W 003°11'66 5.5
2016-Sep-18 19:33N 49°30' W 004°51'9 2.1
2016-Sep-18 15:32N 49°26' W 005°03'1 1.0
2016-Sep-18 14:33N 49°26' W 005°04'5 1.2
2016-Sep-18 10:33N 49°27' W 004°57'1 1.4
2016-Sep-18 09:31N 49°28' W 004°55'  

Dump ship's entire track history